Terminal Aerodrome Forecast
Issued by NWS

Home | Current Version | Previous Version | Text Only | Print | Product List | Glossary On
Versions: 1 2 3 4 5 6 7 8 9 10 11 12 13 14 15 16 17 18
000
FTUS44 KEWX 042320
TAFSSF
TAF
KSSF 042320Z 0500/0524 14010G20KT P6SM VCSH SCT070 BKN120
     FM050100 14010KT P6SM SCT070
     FM050600 12005KT P6SM SCT010 SCT150
     FM050900 12005KT P6SM BKN010
     FM051700 10010KT P6SM SCT040=

USA.gov is the U.S. government's official web portal to all federal, state and local government web resources and services.